Aeroporto :
LOGIN :

Iscrizione | Disclaimer

   EN    FR    IT 

 










Sommario :    VFR   VFR Marginale   IFR   IFR Intensivo   IFR Molto Intensivo
Visibilità : 
Base nubi : 
>= 8 km
>= 3000ft
5 / 8 km
1000 / 3000 ft
1500m / 5 km
500 / 1000 ft
800 / 1500m
200 / 500 ft
< 800m
< 200 ft
Simboli :   Temporali  Nebbia  Neve Forte  Precipitazioni Forti  Vento > 20 kt
SIGMETs :   Varie  Temporali  Ghiacco  Turbolenza  Onda orograficha  Ceneri Vulcaniche






- Altitudine del aeroporto : 503 ft
- Codice IATA : BLE


ESSD - Borlange

ULTIMO METAR :
  • 220650Z 12009KT 3500 DZ BR OVC008 05/04 Q1020

METARs OBSOLETI :
  • 220620Z AUTO 12009KT 9999 OVC008/// 05/04 Q1020
  • 220550Z AUTO 11009KT 9999 BKN006/// OVC009/// 05/05 Q1020 REDZ
  • 220520Z AUTO 11009KT 9999 OVC006/// 05/05 Q1020
  • 220450Z AUTO 12009KT 6000 BKN006/// BKN008/// OVC012/// 05/05 Q1020 REDZ
  • 220420Z AUTO 11009KT 3400 DZ VV006 05/05 Q1020

TAF TAF ESSD
Valido dal 22 a 07 ore il 22 a 15 ore UTC


220630Z 2207/2215 11010KT 9999 BKN006
PROB40 2207/2215 2500 RA SCT006 BKN010



MetMap, La meteo Aeronautica in un colpo d'occhio ! - Copyright ORBIFLY Dicembre 2007 - Disclaimer

ORBIFLY MET'MAP TEAM :

Programmazione e sviluppo : Alexandra Zaïnal
Concezione e sviluppo : Baudouin d'Aumeries
Co-Programmazione e sviluppo : Marc-Olivier Méhu
Supporto tecnico e logistico : Manuel Goepfert
Aiuto per la traduzione : Arnaldo La Scala

Contatto : metmap@orbifly.com




FONTI E CREDITI :

   NOAA